Terminal Aerodrome Forecast
Issued by NWS

Home | Current Version | Previous Version | Text Only | Print | Product List | Glossary On
Versions: 1 2 3 4 5 6 7 8 9 10 11 12 13 14 15 16 17 18 19 20 21
000
FTUS43 KDLH 231100 RRA
TAFHYR
TAF
KHYR 231147Z 2312/2412 04008KT 5SM BR OVC012
      TEMPO 2313/2316 2SM -SN BR OVC008
     FM231600 03008KT 2SM -SN BR OVC008
      TEMPO 2316/2320 1/2SM SN FG OVC005
     FM232000 02008KT 3SM -SN BR OVC008
     FM240200 36007KT 6SM -SN BR OVC005
     FM240800 02005KT 4SM -SN BR OVC004=

USA.gov is the U.S. government's official web portal to all federal, state and local government web resources and services.